Time;durP1;ratioP1;P1;durP2;ratioP2;P2;SDS_P1;SDS_P2;PMS_P1;PMS_P2;Temp;Humidity;BMP_temperature;BMP_pressure;BME280_temperature;BME280_humidity;BME280_pressure;Samples;Min_cycle;Max_cycle;Signal;HPM_P1;HPM_P2
2021/12/24 00:00:22;;;;;;;13.30;4.57;;;;;;;-149.78;100.00;50547.72;5099871;27;20026;-77
2021/12/24 00:02:49;;;;;;;15.82;4.53;;;;;;;-149.78;100.00;50549.69;5123749;27;20027;-77
2021/12/24 00:05:16;;;;;;;21.65;4.32;;;;;;;-149.78;100.00;50549.69;5109509;28;20030;-77
2021/12/24 00:07:41;;;;;;;17.38;4.35;;;;;;;-149.78;100.00;50596.63;5112213;27;20110;-78
2021/12/24 00:10:09;;;;;;;20.02;6.70;;;;;;;-149.78;100.00;50553.59;5087701;27;20069;-76
2021/12/24 00:12:38;;;;;;;21.60;5.13;;;;;;;-149.78;100.00;50604.44;5118124;27;20546;-76
2021/12/24 00:15:16;;;;;;;15.88;4.28;;;;;;;-149.78;100.00;50584.88;5120291;27;20077;-77
2021/12/24 00:17:41;;;;;;;13.18;4.00;;;;;;;-149.78;100.00;50625.94;5106634;28;20035;-76
2021/12/24 00:36:32;;;;;;;12.50;3.10;;;;;;;-149.78;100.00;50579.00;5113978;27;20070;-76
2021/12/24 00:38:58;;;;;;;11.27;3.60;;;;;;;-149.78;100.00;50577.06;5080027;28;20083;-75
2021/12/24 00:41:24;;;;;;;8.73;2.70;;;;;;;-149.78;100.00;50569.22;5101279;28;20031;-76
2021/12/24 00:43:50;;;;;;;14.70;3.40;;;;;;;-149.78;100.00;50573.16;5116811;27;20102;-75
2021/12/24 00:46:17;;;;;;;12.18;3.67;;;;;;;-149.78;100.00;50598.56;5094042;28;20051;-76
2021/12/24 00:48:42;;;;;;;11.02;3.30;;;;;;;-149.78;100.00;50590.75;5097024;28;20058;-76
2021/12/24 00:51:20;;;;;;;12.43;3.95;;;;;;;-149.78;100.00;50602.47;5115507;27;20186;-75
2021/12/24 00:56:15;;;;;;;14.45;4.10;;;;;;;-149.78;100.00;50569.22;5115207;27;20027;-76
2021/12/24 00:58:42;;;;;;;13.88;4.13;;;;;;;-149.78;100.00;50586.84;5135618;27;20529;-76
2021/12/24 01:01:10;;;;;;;19.55;4.03;;;;;;;-149.78;100.00;50612.25;5111456;27;20035;-76
2021/12/24 01:03:36;;;;;;;12.82;4.10;;;;;;;-149.78;100.00;50588.78;5103055;28;20123;-76
2021/12/24 01:06:02;;;;;;;19.77;4.38;;;;;;;-149.78;100.00;50588.78;5097162;27;20539;-76
2021/12/24 01:08:28;;;;;;;23.90;4.22;;;;;;;-149.78;100.00;50573.16;5110250;28;20467;-76
2021/12/24 01:11:00;;;;;;;16.25;4.43;;;;;;;-149.78;100.00;50604.44;5109718;27;20126;-76
2021/12/24 01:13:28;;;;;;;17.60;4.50;;;;;;;-149.78;100.00;50588.78;5096607;28;20031;-75
2021/12/24 01:16:08;;;;;;;14.48;4.47;;;;;;;-149.78;100.00;50590.75;5108751;27;20031;-76
2021/12/24 01:18:51;;;;;;;18.50;4.68;;;;;;;-149.78;100.00;50577.06;5102493;27;20034;-75
2021/12/24 01:21:38;;;;;;;10.38;4.85;;;;;;;-149.78;100.00;50612.25;5104690;28;20036;-76
2021/12/24 01:24:09;;;;;;;13.32;4.60;;;;;;;-149.78;100.00;50596.63;5123771;27;20080;-75
2021/12/24 01:45:15;;;;;;;16.73;5.68;;;;;;;-149.78;100.00;50590.75;5114576;27;20034;-75
2021/12/24 01:47:40;;;;;;;17.92;5.82;;;;;;;-149.78;100.00;50584.88;5113471;27;20052;-75
2021/12/24 01:50:07;;;;;;;29.05;6.53;;;;;;;-149.78;100.00;50580.97;5106239;28;20032;-74
2021/12/24 01:52:32;;;;;;;25.75;6.70;;;;;;;-149.78;100.00;50579.00;5076377;27;20038;-74
2021/12/24 01:54:58;;;;;;;16.42;6.03;;;;;;;-149.78;100.00;50588.78;5086814;27;20035;-74
2021/12/24 01:57:24;;;;;;;21.50;6.40;;;;;;;-149.78;100.00;50608.34;5085238;28;20031;-74
2021/12/24 01:59:50;;;;;;;25.05;7.20;;;;;;;-149.78;100.00;50561.41;5132797;27;21386;-75
2021/12/24 02:02:15;;;;;;;20.95;7.00;;;;;;;-149.78;100.00;50584.88;5090469;27;20031;-75
2021/12/24 02:04:41;;;;;;;23.13;6.97;;;;;;;-149.78;100.00;50575.09;5116031;27;20027;-75
2021/12/24 02:07:07;;;;;;;23.63;7.22;;;;;;;-149.78;100.00;50588.78;5095837;28;20344;-75
2021/12/24 02:09:36;;;;;;;18.75;6.88;;;;;;;-149.78;100.00;50592.72;5110254;27;20042;-75
2021/12/24 02:12:05;;;;;;;20.40;6.97;;;;;;;-149.78;100.00;50592.72;5110995;28;20093;-75
2021/12/24 02:14:38;;;;;;;23.00;6.68;;;;;;;-149.78;100.00;50584.88;5115216;28;20075;-75
2021/12/24 02:17:29;;;;;;;17.73;5.90;;;;;;;-149.78;100.00;50565.31;5103366;28;20462;-74
2021/12/24 02:28:36;;;;;;;20.23;5.18;;;;;;;-149.78;100.00;50577.06;5101511;28;20372;-74
2021/12/24 02:31:08;;;;;;;17.33;5.30;;;;;;;-149.78;100.00;50553.59;5109629;28;20074;-74
2021/12/24 02:33:35;;;;;;;16.00;5.68;;;;;;;-149.78;100.00;50608.34;5113413;28;20031;-75
2021/12/24 02:36:02;;;;;;;17.77;5.22;;;;;;;-149.78;100.00;50565.31;5134073;28;20034;-75
2021/12/24 02:38:28;;;;;;;17.75;5.15;;;;;;;-149.78;100.00;50565.31;5120601;27;20035;-75
2021/12/24 02:40:54;;;;;;;23.10;5.43;;;;;;;-149.78;100.00;50596.63;5098961;28;20559;-75
2021/12/24 02:43:22;;;;;;;16.75;4.40;;;;;;;-149.78;100.00;50602.47;5121926;27;20027;-74
2021/12/24 02:45:50;;;;;;;13.90;4.65;;;;;;;-149.78;100.00;50561.41;5108908;27;20111;-74
2021/12/24 02:53:59;;;;;;;17.00;4.63;;;;;;;-149.78;100.00;50557.50;5129504;27;20099;-75
2021/12/24 02:56:31;;;;;;;14.65;4.50;;;;;;;-149.78;100.00;50594.66;5104226;27;20041;-75
2021/12/24 02:59:01;;;;;;;12.13;4.65;;;;;;;-149.78;100.00;50602.47;5125141;27;20038;-75
2021/12/24 03:01:29;;;;;;;13.30;3.90;;;;;;;-149.78;100.00;50639.66;5128592;27;20027;-76
2021/12/24 03:03:56;;;;;;;19.23;4.35;;;;;;;-149.78;100.00;50577.06;5123842;27;20027;-75
2021/12/24 03:06:29;;;;;;;18.35;5.68;;;;;;;-149.78;100.00;50600.53;5121077;27;20427;-75
2021/12/24 03:08:56;;;;;;;9.68;4.90;;;;;;;-149.78;100.00;50627.91;5108514;28;20114;-75
2021/12/24 03:11:23;;;;;;;8.45;3.95;;;;;;;-149.78;100.00;50596.63;5098870;27;20138;-74
2021/12/24 03:13:51;;;;;;;12.13;4.00;;;;;;;-149.78;100.00;50571.19;5110293;28;20360;-75
2021/12/24 03:16:17;;;;;;;12.55;4.22;;;;;;;-149.78;100.00;50584.88;5131403;27;20401;-75
2021/12/24 03:18:44;;;;;;;12.45;3.92;;;;;;;-149.78;100.00;50602.47;5098956;28;20066;-76
2021/12/24 03:24:33;;;;;;;14.65;3.67;;;;;;;-149.78;100.00;50561.41;5122796;27;20039;-75
2021/12/24 03:26:37;;;;;;;13.65;4.20;;;;;;;-149.78;100.00;50594.66;5122958;27;20039;-75
2021/12/24 03:29:05;;;;;;;17.75;4.00;;;;;;;-149.78;100.00;50608.34;5118742;27;20038;-75
2021/12/24 03:31:32;;;;;;;15.25;3.83;;;;;;;-149.78;100.00;50624.00;5104548;27;20035;-75
2021/12/24 03:33:58;;;;;;;14.60;3.90;;;;;;;-149.78;100.00;50588.78;5111723;28;20059;-75
2021/12/24 03:36:26;;;;;;;20.88;3.92;;;;;;;-149.78;100.00;50573.16;5111554;27;20069;-75
2021/12/24 03:38:52;;;;;;;12.15;3.88;;;;;;;-149.78;100.00;50565.31;5096866;28;20079;-76
2021/12/24 03:41:20;;;;;;;10.43;4.45;;;;;;;-149.78;100.00;50539.91;5085570;28;20050;-76
2021/12/24 03:43:45;;;;;;;10.75;3.55;;;;;;;-149.78;100.00;50608.34;5130154;27;20023;-76
2021/12/24 03:46:15;;;;;;;13.43;3.22;;;;;;;-149.78;100.00;50612.25;5102371;27;20434;-75
2021/12/24 03:48:58;;;;;;;14.05;4.03;;;;;;;-149.78;100.00;50565.31;5081731;28;20489;-75
2021/12/24 03:51:47;;;;;;;10.57;3.10;;;;;;;-149.78;100.00;50600.53;5084789;28;20395;-75
2021/12/24 03:56:57;;;;;;;15.40;3.75;;;;;;;-149.78;100.00;50573.16;5128371;27;20055;-75
2021/12/24 03:59:23;;;;;;;17.33;4.20;;;;;;;-149.78;100.00;50631.81;5136412;27;20504;-75
2021/12/24 04:01:49;;;;;;;16.75;4.15;;;;;;;-149.78;100.00;50557.50;5117519;27;20027;-76
2021/12/24 04:04:15;;;;;;;11.60;4.60;;;;;;;-149.78;100.00;50543.81;5130334;27;20051;-76
2021/12/24 04:06:41;;;;;;;12.43;5.28;;;;;;;-149.78;100.00;50580.97;5136521;27;20045;-76
2021/12/24 04:09:08;;;;;;;17.95;5.70;;;;;;;-149.78;100.00;50569.22;5097701;28;20394;-76
2021/12/24 04:11:34;;;;;;;18.25;5.35;;;;;;;-149.78;100.00;50594.66;5111991;28;20029;-75
2021/12/24 04:14:00;;;;;;;17.27;6.13;;;;;;;-149.78;100.00;50584.88;5108668;27;20043;-76
2021/12/24 04:16:28;;;;;;;22.52;5.72;;;;;;;-149.78;100.00;50588.78;5111978;27;20031;-75
2021/12/24 04:27:07;;;;;;;19.42;6.18;;;;;;;-149.78;100.00;50608.34;5104994;27;20031;-75
2021/12/24 04:29:32;;;;;;;19.48;5.75;;;;;;;-149.78;100.00;50612.25;5135790;27;20489;-75
2021/12/24 04:32:12;;;;;;;13.77;5.65;;;;;;;-149.78;100.00;50625.94;5130072;27;20482;-75
2021/12/24 04:34:43;;;;;;;22.88;6.07;;;;;;;-149.78;100.00;50604.44;5124124;27;20067;-76
2021/12/24 05:01:50;;;;;;;14.30;5.75;;;;;;;-149.78;100.00;50563.38;5134713;27;20390;-76
2021/12/24 05:04:24;;;;;;;17.55;6.25;;;;;;;-149.78;100.00;50580.97;5117034;27;20575;-76
2021/12/24 05:06:56;;;;;;;18.02;5.00;;;;;;;-149.78;100.00;50592.72;5115290;27;20023;-76
2021/12/24 05:09:24;;;;;;;14.63;4.32;;;;;;;-149.78;100.00;50588.78;5116923;27;20467;-76
2021/12/24 05:11:50;;;;;;;13.35;4.65;;;;;;;-149.78;100.00;50573.16;5117251;27;20439;-76
2021/12/24 05:14:16;;;;;;;14.32;5.07;;;;;;;-149.78;100.00;50622.03;5135247;27;20126;-76
2021/12/24 05:21:54;;;;;;;11.90;4.40;;;;;;;-149.78;100.00;50624.00;5135076;27;20039;-76
2021/12/24 05:24:24;;;;;;;14.32;4.57;;;;;;;-149.78;100.00;50608.34;5116749;27;20027;-75
2021/12/24 05:26:54;;;;;;;9.85;4.25;;;;;;;-149.78;100.00;50616.19;5135322;27;20027;-76
2021/12/24 05:29:20;;;;;;;10.88;4.25;;;;;;;-149.78;100.00;50608.34;5117061;27;20031;-76
2021/12/24 05:31:46;;;;;;;11.50;4.28;;;;;;;-149.78;100.00;50616.19;5099928;27;20043;-76
2021/12/24 05:34:15;;;;;;;10.02;4.43;;;;;;;-149.78;100.00;50580.97;5099501;27;20040;-76
2021/12/24 05:36:41;;;;;;;12.73;4.60;;;;;;;-149.78;100.00;50624.00;5116994;27;20039;-76
2021/12/24 05:39:07;;;;;;;16.45;5.10;;;;;;;-149.78;100.00;50592.72;5124243;27;20050;-75
2021/12/24 05:41:33;;;;;;;17.00;4.43;;;;;;;-149.78;100.00;50602.47;5130564;27;20047;-76
2021/12/24 05:44:01;;;;;;;12.52;5.00;;;;;;;-149.78;100.00;50573.16;5132985;27;20057;-75
2021/12/24 05:46:27;;;;;;;14.45;4.88;;;;;;;-149.78;100.00;50584.88;5131837;27;20032;-76
2021/12/24 05:48:53;;;;;;;13.20;4.85;;;;;;;-149.78;100.00;50622.03;5131263;27;20110;-75
2021/12/24 05:51:19;;;;;;;13.43;5.10;;;;;;;-149.78;100.00;50620.09;5100914;27;20439;-75
2021/12/24 05:53:44;;;;;;;18.65;4.20;;;;;;;-149.78;100.00;50600.53;5116493;27;20035;-76
2021/12/24 05:56:10;;;;;;;12.85;4.82;;;;;;;-149.78;100.00;50612.25;5116733;27;20059;-75
2021/12/24 05:58:36;;;;;;;16.13;4.72;;;;;;;-149.78;100.00;50616.19;5116457;27;20083;-75
2021/12/24 06:01:02;;;;;;;17.35;5.07;;;;;;;-149.78;100.00;50598.56;5099577;27;20031;-75
2021/12/24 06:03:27;;;;;;;15.07;4.90;;;;;;;-149.78;100.00;50625.94;5116156;28;20071;-75
2021/12/24 06:05:53;;;;;;;16.25;4.60;;;;;;;-149.78;100.00;50625.94;5105984;27;20106;-76
2021/12/24 06:08:19;;;;;;;11.95;4.22;;;;;;;-149.78;100.00;50620.09;5119580;27;20168;-76
2021/12/24 06:10:46;;;;;;;14.73;5.40;;;;;;;-149.78;100.00;50610.31;5120138;27;20442;-76
2021/12/24 06:13:12;;;;;;;18.45;5.32;;;;;;;-149.78;100.00;50655.28;5114418;27;20175;-76
2021/12/24 06:15:44;;;;;;;18.85;5.28;;;;;;;-149.78;100.00;50616.19;5142536;27;20049;-75
2021/12/24 06:18:19;;;;;;;17.15;5.05;;;;;;;-149.78;100.00;50592.72;5121933;27;20510;-75
2021/12/24 06:20:45;;;;;;;16.88;5.40;;;;;;;-149.78;100.00;50643.56;5124046;27;20039;-75
2021/12/24 06:23:12;;;;;;;16.67;5.15;;;;;;;-149.78;100.00;50620.09;5104349;27;20032;-75
2021/12/24 06:25:38;;;;;;;11.32;4.78;;;;;;;-149.78;100.00;50612.25;5125203;27;20032;-75
2021/12/24 06:28:04;;;;;;;16.08;4.95;;;;;;;-149.78;100.00;50616.19;5112610;28;20038;-75
2021/12/24 06:30:31;;;;;;;19.42;5.88;;;;;;;-149.78;100.00;50596.63;5095466;28;20491;-76
2021/12/24 06:32:57;;;;;;;14.88;5.10;;;;;;;-149.78;100.00;50594.66;5113644;28;20027;-76
2021/12/24 06:35:24;;;;;;;11.57;4.35;;;;;;;-149.78;100.00;50622.03;5112310;28;20143;-76
2021/12/24 06:37:51;;;;;;;13.25;4.40;;;;;;;-149.78;100.00;50618.13;5112627;28;20035;-76
2021/12/24 06:40:18;;;;;;;15.68;4.35;;;;;;;-149.78;100.00;50612.25;5075819;28;20072;-76
2021/12/24 06:42:44;;;;;;;14.45;4.38;;;;;;;-149.78;100.00;50624.00;5055711;28;20082;-76
2021/12/24 06:45:10;;;;;;;14.00;4.63;;;;;;;-149.78;100.00;50616.19;5088776;28;20038;-76
2021/12/24 06:47:36;;;;;;;17.60;4.38;;;;;;;-149.78;100.00;50612.25;5071891;28;20439;-75
2021/12/24 06:50:03;;;;;;;13.20;4.82;;;;;;;-149.78;100.00;50622.03;5087116;28;20032;-75
2021/12/24 06:52:29;;;;;;;10.88;4.07;;;;;;;-149.78;100.00;50604.44;5058755;28;20448;-76
2021/12/24 06:54:55;;;;;;;15.55;4.55;;;;;;;-149.78;100.00;50616.19;5093087;28;20073;-72
2021/12/24 06:57:22;;;;;;;11.25;4.25;;;;;;;-149.78;100.00;50608.34;5092050;28;20383;-73
2021/12/24 06:59:48;;;;;;;11.13;4.20;;;;;;;-149.78;100.00;50651.38;5092101;28;20456;-75
2021/12/24 07:02:14;;;;;;;13.75;4.35;;;;;;;-149.78;100.00;50643.56;5092035;28;20471;-74
2021/12/24 07:04:40;;;;;;;12.23;4.43;;;;;;;-149.78;100.00;50592.72;5091910;28;20467;-73
2021/12/24 07:07:05;;;;;;;16.52;5.32;;;;;;;-149.78;100.00;50624.00;5075170;28;20032;-75
2021/12/24 07:09:31;;;;;;;14.52;4.60;;;;;;;-149.78;100.00;50616.19;5093354;28;20036;-76
2021/12/24 07:11:57;;;;;;;15.80;4.35;;;;;;;-149.78;100.00;50610.31;5075030;28;20059;-74
2021/12/24 07:14:23;;;;;;;21.83;5.13;;;;;;;-149.78;100.00;50624.00;5091617;28;20035;-71
2021/12/24 07:16:50;;;;;;;14.13;4.55;;;;;;;-149.78;100.00;50584.88;5088236;28;20816;-72
2021/12/24 07:19:17;;;;;;;15.68;4.75;;;;;;;-149.78;100.00;50612.25;5105207;28;20045;-72
2021/12/24 07:21:42;;;;;;;9.13;3.90;;;;;;;-149.78;100.00;50600.53;5109755;28;20421;-72
2021/12/24 07:24:09;;;;;;;13.75;4.63;;;;;;;-149.78;100.00;50580.97;5102099;28;20118;-71
2021/12/24 07:26:35;;;;;;;15.38;4.70;;;;;;;-149.78;100.00;50577.06;5109546;28;20065;-71
2021/12/24 07:29:01;;;;;;;12.60;4.47;;;;;;;-149.78;100.00;50612.25;5082112;28;20031;-73
2021/12/24 07:31:27;;;;;;;15.90;4.65;;;;;;;-149.78;100.00;50616.19;5103190;28;20038;-73
2021/12/24 07:33:53;;;;;;;12.63;4.45;;;;;;;-149.78;100.00;50580.97;5097918;28;20032;-72
2021/12/24 07:36:18;;;;;;;12.02;4.40;;;;;;;-149.78;100.00;50612.25;5097094;28;20042;-73
2021/12/24 07:38:44;;;;;;;12.13;4.72;;;;;;;-149.78;100.00;50594.66;5107885;27;20051;-71
2021/12/24 07:41:10;;;;;;;18.15;4.93;;;;;;;-149.78;100.00;50606.41;5155111;27;20041;-72
2021/12/24 07:43:37;;;;;;;14.32;5.03;;;;;;;-149.78;100.00;50604.44;5154969;27;20537;-74
2021/12/24 07:46:03;;;;;;;11.07;4.18;;;;;;;-149.78;100.00;50573.16;5122132;27;20062;-76
2021/12/24 07:48:31;;;;;;;15.00;5.05;;;;;;;-149.78;100.00;50580.97;5113027;27;20145;-76
2021/12/24 07:53:26;;;;;;;16.30;5.18;;;;;;;-149.78;100.00;50588.78;5098062;28;20036;-76
2021/12/24 07:55:55;;;;;;;15.50;4.68;;;;;;;-149.78;100.00;50614.22;5132387;27;20442;-77
2021/12/24 07:58:21;;;;;;;10.77;4.32;;;;;;;-149.78;100.00;50602.47;5101279;27;20431;-76
2021/12/24 08:00:48;;;;;;;12.35;4.43;;;;;;;-149.78;100.00;50614.22;5101348;27;20031;-76
2021/12/24 08:03:14;;;;;;;11.00;4.43;;;;;;;-149.78;100.00;50604.44;5114289;28;20387;-76
2021/12/24 08:05:41;;;;;;;11.52;4.43;;;;;;;-149.78;100.00;50633.78;5118199;27;20031;-76
2021/12/24 08:08:10;;;;;;;12.85;4.40;;;;;;;-149.78;100.00;50606.41;5101318;27;20064;-75
2021/12/24 08:10:37;;;;;;;11.75;3.95;;;;;;;-149.78;100.00;50612.25;5103682;27;20046;-82
2021/12/24 08:13:04;;;;;;;15.43;4.10;;;;;;;-149.78;100.00;50594.66;5141913;27;20041;-78
2021/12/24 08:15:30;;;;;;;7.03;3.60;;;;;;;-149.78;100.00;50584.88;5117879;27;20043;-77
2021/12/24 08:17:56;;;;;;;14.50;4.18;;;;;;;-149.78;100.00;50604.44;5107145;27;20118;-77
2021/12/24 08:20:24;;;;;;;13.90;4.05;;;;;;;-149.78;100.00;50582.94;5130050;27;20115;-78
2021/12/24 08:22:53;;;;;;;14.05;3.72;;;;;;;-149.78;100.00;50565.31;5113549;27;20063;-77
2021/12/24 08:25:20;;;;;;;17.95;6.18;;;;;;;-149.78;100.00;50624.00;5113700;27;20031;-77
2021/12/24 08:27:46;;;;;;;10.43;3.90;;;;;;;-149.78;100.00;50610.31;5119484;27;20070;-78
2021/12/24 08:30:13;;;;;;;13.18;3.58;;;;;;;-149.78;100.00;50625.94;5099936;27;20150;-81
2021/12/24 08:32:41;;;;;;;16.15;4.15;;;;;;;-149.78;100.00;50608.34;5100615;27;20134;-82
2021/12/24 08:35:10;;;;;;;11.77;4.28;;;;;;;-149.78;100.00;50600.53;5116238;27;20035;-81
2021/12/24 08:37:36;;;;;;;13.98;4.20;;;;;;;-149.78;100.00;50604.44;5106326;27;20038;-81
2021/12/24 08:40:04;;;;;;;14.77;4.35;;;;;;;-149.78;100.00;50573.16;5098080;28;20155;-79
2021/12/24 08:42:29;;;;;;;14.98;4.00;;;;;;;-149.78;100.00;50620.09;5117629;27;20047;-81
2021/12/24 08:44:55;;;;;;;12.38;4.05;;;;;;;-149.78;100.00;50596.63;5100913;28;20036;-81
2021/12/24 08:47:21;;;;;;;10.95;4.03;;;;;;;-149.78;100.00;50616.19;5089107;28;20108;-82
2021/12/24 08:49:46;;;;;;;13.60;4.30;;;;;;;-149.78;100.00;50588.78;5114320;27;20040;-84
2021/12/24 08:52:13;;;;;;;14.70;5.00;;;;;;;-149.78;100.00;50592.72;5085053;28;20036;-81
2021/12/24 08:54:38;;;;;;;21.23;5.22;;;;;;;-149.78;100.00;50604.44;5119955;27;20508;-79
2021/12/24 08:57:04;;;;;;;20.15;4.80;;;;;;;-149.78;100.00;50625.94;5096105;28;20035;-79
2021/12/24 08:59:30;;;;;;;15.18;4.68;;;;;;;-149.78;100.00;50590.75;5097794;27;20036;-78
2021/12/24 09:01:58;;;;;;;11.80;4.45;;;;;;;-149.78;100.00;50555.53;5120322;27;20031;-78
2021/12/24 09:04:24;;;;;;;13.02;4.60;;;;;;;-149.78;100.00;50610.31;5084795;27;20107;-77
2021/12/24 09:06:51;;;;;;;16.88;4.65;;;;;;;-149.78;100.00;50631.81;5099104;28;20036;-78
2021/12/24 09:09:17;;;;;;;17.80;4.47;;;;;;;-149.78;100.00;50631.81;5118474;27;20035;-79
2021/12/24 09:11:44;;;;;;;19.80;4.50;;;;;;;-149.78;100.00;50580.97;5082946;27;20394;-78
2021/12/24 09:14:17;;;;;;;20.08;4.57;;;;;;;-149.78;100.00;50584.88;5115390;27;20094;-78
2021/12/24 09:16:43;;;;;;;16.67;4.93;;;;;;;-149.78;100.00;50620.09;5096177;28;20036;-78
2021/12/24 09:19:13;;;;;;;14.38;4.90;;;;;;;-149.78;100.00;50592.72;5086772;27;20039;-80
2021/12/24 09:21:39;;;;;;;21.70;5.45;;;;;;;-149.78;100.00;50590.75;5112382;27;20421;-79
2021/12/24 09:24:07;;;;;;;19.40;4.95;;;;;;;-149.78;100.00;50608.34;5107700;27;20051;-77
2021/12/24 09:26:33;;;;;;;15.85;4.90;;;;;;;-149.78;100.00;50588.78;5105496;27;20034;-78
2021/12/24 09:29:05;;;;;;;17.60;4.40;;;;;;;-149.78;100.00;50565.31;5116765;27;20474;-78
2021/12/24 09:31:31;;;;;;;15.35;3.92;;;;;;;-149.78;100.00;50571.19;5102475;27;20031;-77
2021/12/24 09:33:56;;;;;;;22.38;5.00;;;;;;;-149.78;100.00;50612.25;5105046;28;20039;-78
2021/12/24 09:36:25;;;;;;;18.75;4.93;;;;;;;-149.78;100.00;50594.66;5111728;27;20051;-78
2021/12/24 09:38:53;;;;;;;26.23;5.82;;;;;;;-149.78;100.00;50588.78;5131585;27;20090;-77
2021/12/24 09:41:20;;;;;;;16.70;4.97;;;;;;;-149.78;100.00;50596.63;5105605;27;20035;-79
2021/12/24 09:43:46;;;;;;;17.15;5.40;;;;;;;-149.78;100.00;50577.06;5102248;27;20035;-76
2021/12/24 09:46:12;;;;;;;23.17;6.10;;;;;;;-149.78;100.00;50612.25;5120985;27;20032;-76
2021/12/24 09:48:39;;;;;;;18.95;7.03;;;;;;;-149.78;100.00;50596.63;5107597;27;20038;-76
2021/12/24 09:51:04;;;;;;;23.63;5.72;;;;;;;-149.78;100.00;50608.34;5087677;28;20054;-79
2021/12/24 09:53:30;;;;;;;16.88;5.75;;;;;;;-149.78;100.00;50618.13;5076718;28;20487;-81
2021/12/24 09:55:56;;;;;;;15.60;5.95;;;;;;;-149.78;100.00;50588.78;5111726;27;20059;-81
2021/12/24 09:58:22;;;;;;;16.40;6.10;;;;;;;-149.78;100.00;50629.88;5083255;27;20039;-82
2021/12/24 10:00:48;;;;;;;18.40;5.68;;;;;;;-149.78;100.00;50624.00;5108892;27;20087;-80
2021/12/24 10:03:28;;;;;;;18.23;6.30;;;;;;;-149.78;100.00;50602.47;5102542;27;20055;-82
2021/12/24 10:05:54;;;;;;;16.13;5.90;;;;;;;-149.78;100.00;50604.44;5088662;28;20020;-82
2021/12/24 10:08:22;;;;;;;22.23;7.07;;;;;;;-149.78;100.00;50534.03;5089161;27;20411;-81
2021/12/24 10:10:52;;;;;;;22.92;7.88;;;;;;;-149.78;100.00;50608.34;5070312;28;20051;-82
2021/12/24 10:13:27;;;;;;;18.98;7.57;;;;;;;-149.78;100.00;50612.25;5112608;28;20028;-83
2021/12/24 10:16:03;;;;;;;22.58;7.93;;;;;;;-149.78;100.00;50604.44;5094682;28;20043;-83
2021/12/24 10:18:36;;;;;;;31.30;8.35;;;;;;;-149.78;100.00;50588.78;5113221;28;20039;-82
2021/12/24 10:21:07;;;;;;;25.38;7.95;;;;;;;-149.78;100.00;50580.97;5110044;28;20472;-82
2021/12/24 10:23:48;;;;;;;26.23;9.48;;;;;;;-149.78;100.00;50596.63;5122736;28;20050;-82
2021/12/24 10:26:26;;;;;;;37.35;9.27;;;;;;;-149.78;100.00;50596.63;5134406;28;20442;-82
2021/12/24 10:29:02;;;;;;;30.08;11.07;;;;;;;-149.78;100.00;50588.78;5121678;28;20031;-83
2021/12/24 10:31:56;;;;;;;34.10;11.02;;;;;;;-149.78;100.00;50577.06;5096289;28;20046;-79
2021/12/24 10:34:30;;;;;;;36.90;13.60;;;;;;;-149.78;100.00;50580.97;5093987;28;20376;-80
2021/12/24 10:37:01;;;;;;;42.28;14.18;;;;;;;-149.78;100.00;50608.34;5091536;28;20032;-80
2021/12/24 10:39:29;;;;;;;35.75;12.85;;;;;;;-149.78;100.00;50588.78;5091899;28;20455;-81
2021/12/24 10:41:57;;;;;;;39.20;14.65;;;;;;;-149.78;100.00;50577.06;5102954;28;20031;-81
2021/12/24 10:44:26;;;;;;;39.08;14.18;;;;;;;-149.78;100.00;50573.16;5105169;28;20036;-81
2021/12/24 10:47:05;;;;;;;49.25;15.27;;;;;;;-149.78;100.00;50624.00;5093147;28;20028;-82
2021/12/24 10:49:52;;;;;;;36.30;13.25;;;;;;;-149.78;100.00;50592.72;5101768;28;20032;-82
2021/12/24 10:54:56;;;;;;;32.67;11.85;;;;;;;-149.78;100.00;50600.53;5112226;28;20032;-82
2021/12/24 10:57:28;;;;;;;31.00;11.50;;;;;;;-149.78;100.00;50624.00;5113918;28;20504;-80
2021/12/24 10:59:56;;;;;;;29.05;11.25;;;;;;;-149.78;100.00;50612.25;5135210;27;20466;-82
2021/12/24 11:02:29;;;;;;;30.75;10.65;;;;;;;-149.78;100.00;50616.19;5118325;27;20058;-81
2021/12/24 11:04:56;;;;;;;33.15;12.10;;;;;;;-149.78;100.00;50573.16;5106535;27;20024;-82
2021/12/24 11:07:42;;;;;;;26.85;10.15;;;;;;;-149.78;100.00;50635.72;5078680;28;20051;-82
2021/12/24 11:10:19;;;;;;;31.92;10.32;;;;;;;-149.78;100.00;50616.19;5110490;27;20031;-82
2021/12/24 11:12:47;;;;;;;30.45;10.10;;;;;;;-149.78;100.00;50575.09;5113090;27;20046;-81
2021/12/24 11:15:31;;;;;;;30.88;11.02;;;;;;;-149.78;100.00;50551.63;5106602;28;20567;-83
2021/12/24 11:18:02;;;;;;;27.90;10.38;;;;;;;-149.78;100.00;50600.53;5106330;27;20074;-81
2021/12/24 11:20:34;;;;;;;28.48;10.10;;;;;;;-149.78;100.00;50561.41;5115149;27;20032;-82
2021/12/24 11:23:03;;;;;;;26.58;9.60;;;;;;;-149.78;100.00;50584.88;5124275;27;20550;-79
2021/12/24 11:25:34;;;;;;;31.65;9.70;;;;;;;-149.78;100.00;50612.25;5119410;27;20551;-80
2021/12/24 11:28:02;;;;;;;27.10;10.57;;;;;;;-149.78;100.00;50592.72;5136832;27;20442;-80
2021/12/24 11:30:30;;;;;;;71.10;22.42;;;;;;;-149.78;100.00;50616.19;5119259;27;20031;-78
2021/12/24 11:32:56;;;;;;;31.38;12.00;;;;;;;-149.78;100.00;50618.13;5124460;27;20030;-78
2021/12/24 11:35:24;;;;;;;28.85;11.02;;;;;;;-149.78;100.00;50600.53;5132051;27;20039;-77
2021/12/24 11:37:52;;;;;;;34.65;13.30;;;;;;;-149.78;100.00;50592.72;5071932;28;20119;-76
2021/12/24 11:40:21;;;;;;;71.25;30.50;;;;;;;-149.78;100.00;50586.84;5098945;28;20044;-77
2021/12/24 11:42:57;;;;;;;134.25;50.63;;;;;;;-149.78;100.00;50608.34;5113316;27;20051;-76
2021/12/24 11:45:33;;;;;;;58.97;24.98;;;;;;;-149.78;100.00;50584.88;5095447;28;20483;-76
2021/12/24 11:48:02;;;;;;;43.80;19.38;;;;;;;-149.78;100.00;50624.00;5101209;28;20042;-75
2021/12/24 11:50:30;;;;;;;54.30;27.08;;;;;;;-149.78;100.00;50588.78;5099003;28;20028;-75
2021/12/24 11:52:58;;;;;;;37.80;15.45;;;;;;;-149.78;100.00;50624.00;5095639;28;20111;-75
2021/12/24 11:55:27;;;;;;;65.47;36.33;;;;;;;-149.78;100.00;50622.03;5115375;28;20056;-75
2021/12/24 11:57:56;;;;;;;47.03;21.25;;;;;;;-149.78;100.00;50592.72;5097192;27;20617;-75
2021/12/24 12:00:26;;;;;;;49.30;22.33;;;;;;;-149.78;100.00;50584.88;5103724;28;20031;-75
2021/12/24 12:02:52;;;;;;;148.75;48.53;;;;;;;-149.78;100.00;50624.00;5662493;22;21622;-71
2021/12/24 12:05:33;;;;;;;178.25;45.13;;;;;;;-149.78;100.00;50637.69;5103720;28;20032;-70
2021/12/24 12:08:30;;;;;;;88.40;26.60;;;;;;;-149.78;100.00;50625.94;5105244;28;20499;-70
2021/12/24 12:10:55;;;;;;;51.15;18.27;;;;;;;-149.78;100.00;50612.25;5100390;28;20126;-69
2021/12/24 12:13:42;;;;;;;38.08;13.43;;;;;;;-149.78;100.00;50627.91;5103425;28;20189;-69
2021/12/24 12:16:11;;;;;;;34.50;13.30;;;;;;;-149.78;100.00;50651.38;5099913;28;20030;-69
2021/12/24 12:18:45;;;;;;;46.40;15.98;;;;;;;-149.78;100.00;50600.53;5108141;28;20027;-72
2021/12/24 12:21:35;;;;;;;68.20;28.60;;;;;;;-149.78;100.00;50618.13;5085568;28;20028;-69
2021/12/24 12:26:50;;;;;;;57.22;22.45;;;;;;;-149.78;100.00;50590.75;5114246;28;20370;-72
2021/12/24 12:29:15;;;;;;;50.13;19.38;;;;;;;-149.78;100.00;50612.25;5096314;28;20100;-70
2021/12/24 12:31:41;;;;;;;106.57;36.60;;;;;;;-149.78;100.00;50651.38;5105423;28;20474;-70
2021/12/24 12:34:49;;;;;;;55.13;21.83;;;;;;;-149.78;100.00;50620.09;5094273;28;20040;-70
2021/12/24 12:37:53;;;;;;;58.75;21.23;;;;;;;-149.78;100.00;50565.31;5088410;28;20047;-71
2021/12/24 12:40:19;;;;;;;48.95;17.77;;;;;;;-149.78;100.00;50627.91;5097168;28;20098;-71
2021/12/24 12:45:36;;;;;;;47.78;18.95;;;;;;;-149.78;100.00;50633.78;5114689;28;20122;-71
2021/12/24 12:48:05;;;;;;;41.65;16.00;;;;;;;-149.78;100.00;50604.44;5096433;28;20047;-71
2021/12/24 12:50:31;;;;;;;45.83;16.88;;;;;;;-149.78;100.00;50627.91;5114357;28;20031;-71
2021/12/24 12:53:30;;;;;;;95.15;16.83;;;;;;;-149.78;100.00;50616.19;5114611;28;20058;-71